createdAt,value
2023-04-13T00:01:55.950Z,2.89
2023-04-13T00:04:22.262Z,2.94
2023-04-13T00:06:48.394Z,2.61
2023-04-13T00:09:14.608Z,1.51
2023-04-13T00:11:40.697Z,1.44
2023-04-13T00:14:06.802Z,0.99
2023-04-13T00:16:33.032Z,1.40
2023-04-13T00:18:59.134Z,1.25
2023-04-13T00:21:25.240Z,1.04
2023-04-13T00:23:51.379Z,1.15
2023-04-13T00:26:17.625Z,0.97
2023-04-13T00:28:43.761Z,1.31
2023-04-13T00:31:09.959Z,1.72
2023-04-13T00:33:36.129Z,1.24
2023-04-13T00:36:02.279Z,1.01
2023-04-13T00:38:28.419Z,1.53
2023-04-13T00:40:54.619Z,1.62
2023-04-13T00:43:20.737Z,1.92
2023-04-13T00:45:46.829Z,2.19
2023-04-13T00:48:12.930Z,2.48
2023-04-13T00:50:39.030Z,2.46
2023-04-13T00:53:06.337Z,2.52
2023-04-13T00:55:34.341Z,2.35
2023-04-13T00:58:00.453Z,2.08
2023-04-13T01:00:26.584Z,2.35
2023-04-13T01:02:52.902Z,2.44
2023-04-13T01:05:19.168Z,2.54
2023-04-13T01:07:45.338Z,2.60
2023-04-13T01:10:11.471Z,2.44
2023-04-13T01:12:37.618Z,2.60
2023-04-13T01:15:03.739Z,2.17
2023-04-13T01:17:29.942Z,1.63
2023-04-13T01:19:56.144Z,1.60
2023-04-13T01:22:22.246Z,1.56
2023-04-13T01:24:48.355Z,1.69
2023-04-13T01:27:14.464Z,1.67
2023-04-13T01:29:40.594Z,1.44
2023-04-13T01:32:06.702Z,1.00
2023-04-13T01:34:32.804Z,1.39
2023-04-13T01:36:58.926Z,0.93
2023-04-13T01:39:25.042Z,1.25
2023-04-13T01:41:51.149Z,1.15
2023-04-13T01:44:17.264Z,1.29
2023-04-13T01:46:43.429Z,1.32
2023-04-13T01:49:09.563Z,1.37
2023-04-13T01:51:35.687Z,1.54
2023-04-13T01:54:01.994Z,1.54
2023-04-13T01:56:28.212Z,1.27
2023-04-13T01:58:54.320Z,1.71
2023-04-13T02:01:20.538Z,1.68
2023-04-13T02:03:46.874Z,1.76
2023-04-13T02:06:13.185Z,1.52
2023-04-13T02:08:39.307Z,2.14
2023-04-13T02:11:05.431Z,1.39
2023-04-13T02:13:31.734Z,1.46
2023-04-13T02:15:57.893Z,1.56
2023-04-13T02:18:24.020Z,1.58
2023-04-13T02:20:50.134Z,1.80
2023-04-13T02:23:16.245Z,1.67
2023-04-13T02:25:42.362Z,1.94
2023-04-13T02:28:08.472Z,2.18
2023-04-13T02:30:34.605Z,1.90
2023-04-13T02:33:00.748Z,1.98
2023-04-13T02:35:26.890Z,2.07
2023-04-13T02:37:52.981Z,2.07
2023-04-13T02:40:19.105Z,2.21
2023-04-13T02:42:45.225Z,2.38
2023-04-13T02:45:11.603Z,2.54
2023-04-13T02:47:37.751Z,2.03
2023-04-13T02:50:03.884Z,2.18
2023-04-13T02:52:29.997Z,2.31
2023-04-13T02:54:56.102Z,2.53
2023-04-13T02:57:22.190Z,2.61
2023-04-13T02:59:48.300Z,2.72
2023-04-13T03:02:14.435Z,2.96
2023-04-13T03:04:40.664Z,2.80
2023-04-13T03:07:06.805Z,2.19
2023-04-13T03:09:32.912Z,2.45
2023-04-13T03:11:59.085Z,2.52
2023-04-13T03:14:25.186Z,2.61
2023-04-13T03:16:51.367Z,2.58
2023-04-13T03:19:17.508Z,2.07
2023-04-13T03:21:43.609Z,2.34
2023-04-13T03:24:09.730Z,1.96
2023-04-13T03:26:35.826Z,2.04
2023-04-13T03:29:01.997Z,1.15
2023-04-13T03:31:28.211Z,0.81
2023-04-13T03:33:54.318Z,0.46
2023-04-13T03:36:20.755Z,1.14
2023-04-13T03:38:46.864Z,1.45
2023-04-13T03:41:12.997Z,1.25
2023-04-13T03:43:39.135Z,1.48
2023-04-13T03:46:05.245Z,1.54
2023-04-13T03:48:31.453Z,1.62
2023-04-13T03:50:57.571Z,1.18
2023-04-13T03:53:23.696Z,0.34
2023-04-13T03:55:49.784Z,0.29
2023-04-13T03:58:15.907Z,0.22
2023-04-13T04:00:42.017Z,-0.07
2023-04-13T04:03:08.226Z,-0.35
2023-04-13T04:05:34.395Z,-0.48
2023-04-13T04:08:00.527Z,-0.57
2023-04-13T04:10:26.665Z,-0.23
2023-04-13T04:12:52.779Z,-0.13
2023-04-13T04:15:18.895Z,0.34
2023-04-13T04:17:44.980Z,0.39
2023-04-13T04:20:11.097Z,0.50
2023-04-13T04:22:37.180Z,0.52
2023-04-13T04:25:03.295Z,0.87
2023-04-13T04:27:29.409Z,0.67
2023-04-13T04:29:55.516Z,0.09
2023-04-13T04:32:21.696Z,0.25
2023-04-13T04:34:47.827Z,0.53
2023-04-13T04:37:20.315Z,0.55
2023-04-13T04:39:47.126Z,0.58
2023-04-13T04:42:13.223Z,0.93
2023-04-13T04:44:39.323Z,0.14
2023-04-13T04:47:05.409Z,-0.22
2023-04-13T04:49:31.529Z,0.13
2023-04-13T04:51:57.631Z,-0.20
2023-04-13T04:54:23.745Z,-0.19
2023-04-13T04:56:49.876Z,-0.26
2023-04-13T04:59:16.018Z,-0.58
2023-04-13T05:01:42.283Z,-0.90
2023-04-13T05:04:08.533Z,-0.59
2023-04-13T05:06:34.658Z,-0.50
2023-04-13T05:09:00.900Z,-0.26
2023-04-13T05:11:27.192Z,0.15
2023-04-13T05:13:56.071Z,-0.35
2023-04-13T05:16:22.223Z,0.01
2023-04-13T05:18:48.390Z,-0.05
2023-04-13T05:21:14.532Z,0.11
2023-04-13T05:23:40.711Z,-0.13
2023-04-13T05:26:06.820Z,0.17
2023-04-13T05:28:32.931Z,0.71
2023-04-13T05:30:59.046Z,0.45
2023-04-13T05:33:25.182Z,0.54
2023-04-13T05:35:51.282Z,0.51
2023-04-13T05:38:17.361Z,0.70
2023-04-13T05:40:43.526Z,0.82
2023-04-13T05:43:09.654Z,0.96
2023-04-13T05:45:35.817Z,1.08
2023-04-13T05:48:01.974Z,1.00
2023-04-13T05:50:28.132Z,1.08
2023-04-13T05:52:54.263Z,1.09
2023-04-13T05:55:20.386Z,0.98
2023-04-13T05:57:46.494Z,0.78
2023-04-13T06:00:12.584Z,0.76
2023-04-13T06:02:38.852Z,0.88
2023-04-13T06:05:05.207Z,0.97
2023-04-13T06:07:31.355Z,1.01
2023-04-13T06:09:57.505Z,1.04
2023-04-13T06:12:23.652Z,0.86
2023-04-13T06:14:49.776Z,1.04
2023-04-13T06:17:15.936Z,0.76
2023-04-13T06:19:42.066Z,0.85
2023-04-13T06:22:08.207Z,0.99
2023-04-13T06:24:34.329Z,0.86
2023-04-13T06:27:00.437Z,0.94
2023-04-13T06:29:26.604Z,1.00
2023-04-13T06:31:52.737Z,1.14
2023-04-13T06:34:18.875Z,1.03
2023-04-13T06:36:44.965Z,0.99
2023-04-13T06:39:11.070Z,1.16
2023-04-13T06:41:37.179Z,1.36
2023-04-13T06:44:03.308Z,1.45
2023-04-13T06:46:29.521Z,1.57
2023-04-13T06:48:56.006Z,1.37
2023-04-13T06:51:25.209Z,1.34
2023-04-13T06:53:51.370Z,1.33
2023-04-13T06:56:17.511Z,1.43
2023-04-13T06:58:43.645Z,1.01
2023-04-13T07:01:09.855Z,1.45
2023-04-13T07:03:36.427Z,1.45
2023-04-13T07:06:02.705Z,1.61
2023-04-13T07:08:28.826Z,1.68
2023-04-13T07:10:54.966Z,2.00
2023-04-13T07:13:21.102Z,1.87
2023-04-13T07:15:47.269Z,1.74
2023-04-13T07:18:13.396Z,1.72
2023-04-13T07:20:39.548Z,1.66
2023-04-13T07:23:20.357Z,1.61
2023-04-13T07:25:46.502Z,1.85
2023-04-13T07:28:14.799Z,1.74
2023-04-13T07:30:40.917Z,1.92
2023-04-13T07:33:07.130Z,1.81
2023-04-13T07:35:33.346Z,2.15
2023-04-13T07:37:59.696Z,2.32
2023-04-13T07:40:25.878Z,2.46
2023-04-13T07:42:52.067Z,2.81
2023-04-13T07:45:18.217Z,2.82
2023-04-13T07:47:44.348Z,3.53
2023-04-13T07:50:10.497Z,4.01
2023-04-13T07:52:36.588Z,4.55
2023-04-13T07:55:02.698Z,4.59
2023-04-13T07:57:28.900Z,4.99
2023-04-13T07:59:55.002Z,5.11
2023-04-13T08:02:21.174Z,5.05
2023-04-13T08:04:47.547Z,3.55
2023-04-13T08:07:13.680Z,2.59
2023-04-13T08:09:39.825Z,3.35
2023-04-13T08:12:05.965Z,2.15
2023-04-13T08:14:32.070Z,1.58
2023-04-13T08:16:58.288Z,1.94
2023-04-13T08:19:24.578Z,1.21
2023-04-13T08:21:50.721Z,1.46
2023-04-13T08:24:16.841Z,2.06
2023-04-13T08:26:43.077Z,2.20
2023-04-13T08:29:09.228Z,2.13
2023-04-13T08:31:35.379Z,2.58
2023-04-13T08:34:01.514Z,1.64
2023-04-13T08:36:27.658Z,2.74
2023-04-13T08:38:53.787Z,2.25
2023-04-13T08:41:19.911Z,2.30
2023-04-13T08:43:46.013Z,2.40
2023-04-13T08:46:12.131Z,2.60
2023-04-13T08:48:52.147Z,2.90
2023-04-13T08:51:19.903Z,2.70
2023-04-13T08:53:46.015Z,2.93
2023-04-13T08:56:13.174Z,2.53
2023-04-13T08:58:45.645Z,2.19
2023-04-13T09:01:13.672Z,2.49
2023-04-13T09:03:41.894Z,1.60
2023-04-13T09:08:59.096Z,1.77
2023-04-13T09:11:26.454Z,2.11
2023-04-13T09:13:53.658Z,2.29
2023-04-13T09:16:20.801Z,2.95
2023-04-13T09:18:47.463Z,3.89
2023-04-13T09:21:18.551Z,4.48
2023-04-13T09:23:45.077Z,5.33
2023-04-13T09:26:11.511Z,5.35
2023-04-13T09:28:37.644Z,5.37
2023-04-13T09:31:03.841Z,5.81
2023-04-13T09:33:30.009Z,6.16
2023-04-13T09:35:56.102Z,6.67
2023-04-13T09:38:22.255Z,6.91
2023-04-13T09:40:48.380Z,5.30
2023-04-13T09:43:14.508Z,6.03
2023-04-13T09:45:40.657Z,5.39
2023-04-13T09:48:07.056Z,4.50
2023-04-13T09:50:33.311Z,3.94
2023-04-13T09:52:59.415Z,4.01
2023-04-13T09:55:25.501Z,3.85
2023-04-13T09:57:51.911Z,4.67
2023-04-13T10:00:19.479Z,4.17
2023-04-13T10:02:46.082Z,3.96
2023-04-13T10:05:12.526Z,4.86
2023-04-13T10:07:38.683Z,5.56
2023-04-13T10:10:04.800Z,4.66
2023-04-13T10:12:30.903Z,4.05
2023-04-13T10:14:57.005Z,4.36
2023-04-13T10:17:23.295Z,3.23
2023-04-13T10:19:49.541Z,3.50
2023-04-13T10:22:15.718Z,2.59
2023-04-13T10:24:41.837Z,3.17
2023-04-13T10:27:07.995Z,3.53
2023-04-13T10:29:34.221Z,4.04
2023-04-13T10:32:00.481Z,3.61
2023-04-13T10:34:26.595Z,3.52
2023-04-13T10:36:52.750Z,3.94
2023-04-13T10:39:18.908Z,4.43
2023-04-13T10:44:28.213Z,2.60
2023-04-13T10:52:35.166Z,3.65
2023-04-13T10:55:01.335Z,3.18
2023-04-13T10:57:27.614Z,3.43
2023-04-13T10:59:58.961Z,4.14
2023-04-13T11:02:25.725Z,4.25
2023-04-13T11:04:52.005Z,4.95
2023-04-13T11:07:18.266Z,4.28
2023-04-13T11:09:44.394Z,4.93
2023-04-13T11:12:10.498Z,4.09
2023-04-13T11:14:36.643Z,4.23
2023-04-13T11:17:02.821Z,4.64
2023-04-13T11:19:29.004Z,4.50
2023-04-13T11:21:55.142Z,4.21
2023-04-13T11:24:21.301Z,4.25
2023-04-13T11:26:47.417Z,3.95
2023-04-13T11:29:13.590Z,4.55
2023-04-13T11:31:39.814Z,4.30
2023-04-13T11:34:06.033Z,3.72
2023-04-13T11:36:32.148Z,3.54
2023-04-13T11:38:58.378Z,3.86
2023-04-13T11:41:24.632Z,3.59
2023-04-13T11:43:50.762Z,3.88
2023-04-13T11:46:16.905Z,3.92
2023-04-13T11:48:43.019Z,3.63
2023-04-13T11:51:09.157Z,3.41
2023-04-13T11:53:35.274Z,3.47
2023-04-13T11:56:01.418Z,2.44
2023-04-13T11:58:27.575Z,3.32
2023-04-13T12:00:53.697Z,2.96
2023-04-13T12:05:49.138Z,3.33
2023-04-13T12:08:16.474Z,3.92
2023-04-13T12:10:55.195Z,3.96
2023-04-13T12:16:08.677Z,3.66
2023-04-13T12:18:40.108Z,3.70
2023-04-13T12:21:06.675Z,4.46
2023-04-13T12:23:33.010Z,3.71
2023-04-13T12:25:59.230Z,4.10
2023-04-13T12:28:25.370Z,4.06
2023-04-13T12:30:51.534Z,4.51
2023-04-13T12:33:20.332Z,3.86
2023-04-13T12:35:46.741Z,4.27
2023-04-13T12:38:12.907Z,3.22
2023-04-13T12:40:39.509Z,3.81
2023-04-13T12:43:06.011Z,3.14
2023-04-13T12:45:39.714Z,3.30
2023-04-13T12:48:09.369Z,3.84
2023-04-13T12:50:35.803Z,3.47
2023-04-13T12:53:02.275Z,3.53
2023-04-13T12:55:41.090Z,4.26
2023-04-13T12:58:09.586Z,5.27
2023-04-13T13:00:36.021Z,4.56
2023-04-13T13:03:13.008Z,3.43
2023-04-13T13:05:42.205Z,3.07
2023-04-13T13:08:08.418Z,3.00
2023-04-13T13:10:34.722Z,3.57
2023-04-13T13:13:00.846Z,4.05
2023-04-13T13:15:27.336Z,3.42
2023-04-13T13:17:54.403Z,3.31
2023-04-13T13:20:20.698Z,3.53
2023-04-13T13:22:46.838Z,3.14
2023-04-13T13:25:12.954Z,3.75
2023-04-13T13:30:08.117Z,3.75
2023-04-13T13:32:34.339Z,2.61
2023-04-13T13:35:00.498Z,1.98
2023-04-13T13:37:26.668Z,2.03
2023-04-13T13:39:52.827Z,2.39
2023-04-13T13:42:18.969Z,2.55
2023-04-13T13:44:45.151Z,1.85
2023-04-13T13:47:11.356Z,2.26
2023-04-13T13:49:37.483Z,1.01
2023-04-13T13:52:03.665Z,0.98
2023-04-13T13:54:29.819Z,1.19
2023-04-13T13:56:55.952Z,1.69
2023-04-13T13:59:22.060Z,3.03
2023-04-13T14:01:48.280Z,2.66
2023-04-13T14:04:14.491Z,3.50
2023-04-13T14:06:40.762Z,3.10
2023-04-13T14:09:06.922Z,2.21
2023-04-13T14:11:33.023Z,2.31
2023-04-13T14:14:03.244Z,3.40
2023-04-13T14:16:34.126Z,2.78
2023-04-13T14:19:00.527Z,2.64
2023-04-13T14:21:26.845Z,2.50
2023-04-13T14:23:52.969Z,3.58
2023-04-13T14:26:19.099Z,3.11
2023-04-13T14:28:45.296Z,2.72
2023-04-13T14:31:11.437Z,3.51
2023-04-13T14:33:37.609Z,3.20
2023-04-13T14:36:03.779Z,2.98
2023-04-13T14:38:29.874Z,2.21
2023-04-13T14:40:55.978Z,2.50
2023-04-13T14:43:22.177Z,2.11
2023-04-13T14:45:48.301Z,2.84
2023-04-13T14:48:14.447Z,3.27
2023-04-13T14:50:40.652Z,2.92
2023-04-13T14:53:06.792Z,2.70
2023-04-13T14:55:32.943Z,2.77
2023-04-13T14:57:59.075Z,2.43
2023-04-13T15:00:25.248Z,2.41
2023-04-13T15:02:51.786Z,2.60
2023-04-13T15:05:19.571Z,2.45
2023-04-13T15:07:45.925Z,2.69
2023-04-13T15:10:12.108Z,3.16
2023-04-13T15:12:38.281Z,2.97
2023-04-13T15:15:04.430Z,3.39
2023-04-13T15:17:30.598Z,2.56
2023-04-13T15:19:56.818Z,2.44
2023-04-13T15:22:22.983Z,3.19
2023-04-13T15:24:49.104Z,2.03
2023-04-13T15:27:15.298Z,2.18
2023-04-13T15:29:41.773Z,2.10
2023-04-13T15:32:18.734Z,2.53
2023-04-13T15:34:44.935Z,2.15
2023-04-13T15:37:11.093Z,1.92
2023-04-13T15:39:37.211Z,0.46
2023-04-13T15:42:03.355Z,0.32
2023-04-13T15:44:29.514Z,1.08
2023-04-13T15:49:35.691Z,-1.01
2023-04-13T15:52:01.883Z,-0.94
2023-04-13T15:54:28.028Z,-1.24
2023-04-13T15:56:54.133Z,-1.08
2023-04-13T15:59:20.270Z,-1.19
2023-04-13T16:01:46.795Z,-0.97
2023-04-13T16:04:13.252Z,-0.74
2023-04-13T16:06:39.491Z,-0.17
2023-04-13T16:09:05.625Z,0.54
2023-04-13T16:11:32.165Z,0.88
2023-04-13T16:13:58.561Z,1.32
2023-04-13T16:16:24.788Z,0.87
2023-04-13T16:18:51.454Z,1.55
2023-04-13T16:21:24.001Z,1.98
2023-04-13T16:23:50.134Z,2.42
2023-04-13T16:26:16.287Z,2.64
2023-04-13T16:28:42.399Z,3.14
2023-04-13T16:31:08.539Z,2.65
2023-04-13T16:33:34.760Z,2.32
2023-04-13T16:36:00.898Z,2.64
2023-04-13T16:38:34.472Z,1.63
2023-04-13T16:41:00.633Z,2.35
2023-04-13T16:43:26.802Z,2.10
2023-04-13T16:45:52.911Z,2.51
2023-04-13T16:48:18.996Z,2.52
2023-04-13T16:50:45.129Z,3.04
2023-04-13T16:53:11.288Z,3.20
2023-04-13T16:55:37.468Z,3.57
2023-04-13T16:58:03.794Z,3.74
2023-04-13T17:00:30.012Z,3.73
2023-04-13T17:02:56.321Z,3.85
2023-04-13T17:05:22.548Z,4.10
2023-04-13T17:07:48.707Z,4.00
2023-04-13T17:10:14.849Z,3.55
2023-04-13T17:12:41.035Z,3.08
2023-04-13T17:15:07.184Z,2.89
2023-04-13T17:17:33.320Z,2.70
2023-04-13T17:19:59.496Z,2.84
2023-04-13T17:22:25.619Z,3.01
2023-04-13T17:25:11.752Z,3.04
2023-04-13T17:27:37.910Z,3.07
2023-04-13T17:30:04.063Z,3.37
2023-04-13T17:32:30.244Z,2.86
2023-04-13T17:34:56.419Z,2.10
2023-04-13T17:37:22.586Z,2.14
2023-04-13T17:39:48.697Z,2.03
2023-04-13T17:42:14.806Z,1.41
2023-04-13T17:44:40.926Z,0.90
2023-04-13T17:47:07.065Z,0.78
2023-04-13T17:49:33.212Z,0.69
2023-04-13T17:51:59.363Z,0.98
2023-04-13T17:54:25.507Z,0.63
2023-04-13T17:56:51.636Z,0.64
2023-04-13T17:59:17.833Z,0.21
2023-04-13T18:01:44.053Z,0.68
2023-04-13T18:04:10.339Z,1.03
2023-04-13T18:06:36.632Z,0.95
2023-04-13T18:09:02.791Z,1.05
2023-04-13T18:11:28.923Z,1.24
2023-04-13T18:13:55.070Z,1.26
2023-04-13T18:21:53.626Z,2.00
2023-04-13T18:24:19.794Z,1.94
2023-04-13T18:26:45.935Z,1.45
2023-04-13T18:29:12.093Z,1.50
2023-04-13T18:31:38.347Z,1.78
2023-04-13T18:34:04.555Z,1.75
2023-04-13T18:36:30.707Z,1.66
2023-04-13T18:38:56.793Z,1.79
2023-04-13T18:41:22.885Z,1.51
2023-04-13T18:43:49.025Z,1.61
2023-04-13T18:46:15.219Z,1.77
2023-04-13T18:48:41.417Z,1.98
2023-04-13T18:51:07.518Z,2.39
2023-04-13T18:53:33.632Z,2.20
2023-04-13T18:55:59.810Z,2.23
2023-04-13T18:58:25.950Z,2.20
2023-04-13T19:00:52.114Z,2.38
2023-04-13T19:03:18.475Z,2.38
2023-04-13T19:05:44.670Z,2.37
2023-04-13T19:08:10.770Z,2.23
2023-04-13T19:10:36.949Z,2.22
2023-04-13T19:13:03.139Z,2.32
2023-04-13T19:15:29.304Z,2.38
2023-04-13T19:17:55.517Z,2.22
2023-04-13T19:20:21.688Z,2.31
2023-04-13T19:22:47.851Z,2.17
2023-04-13T19:25:14.021Z,2.22
2023-04-13T19:27:40.176Z,2.20
2023-04-13T19:30:06.368Z,2.18
2023-04-13T19:32:32.510Z,2.44
2023-04-13T19:34:58.662Z,2.30
2023-04-13T19:37:24.822Z,2.25
2023-04-13T19:39:50.948Z,2.41
2023-04-13T19:42:17.086Z,2.41
2023-04-13T19:44:43.168Z,2.39
2023-04-13T19:47:09.269Z,2.50
2023-04-13T19:49:35.415Z,2.48
2023-04-13T19:52:01.578Z,2.32
2023-04-13T19:54:27.732Z,2.42
2023-04-13T19:56:53.891Z,2.40
2023-04-13T19:59:20.054Z,2.32
2023-04-13T20:01:46.338Z,2.41
2023-04-13T20:04:12.719Z,2.42
2023-04-13T20:06:38.938Z,2.62
2023-04-13T20:09:05.040Z,2.63
2023-04-13T20:11:31.213Z,2.54
2023-04-13T20:13:57.521Z,2.45
2023-04-13T20:16:23.882Z,2.78
2023-04-13T20:18:50.047Z,2.50
2023-04-13T20:21:16.197Z,2.57
2023-04-13T20:23:42.369Z,2.39
2023-04-13T20:26:08.499Z,2.39
2023-04-13T20:28:34.664Z,1.99
2023-04-13T20:31:00.900Z,1.77
2023-04-13T20:33:27.070Z,1.74
2023-04-13T20:35:53.214Z,1.75
2023-04-13T20:38:19.318Z,1.92
2023-04-13T20:40:45.486Z,2.06
2023-04-13T20:43:11.638Z,2.05
2023-04-13T20:45:37.790Z,2.00
2023-04-13T20:48:48.488Z,1.74
2023-04-13T20:50:50.044Z,1.75
2023-04-13T20:53:16.224Z,1.51
2023-04-13T20:55:42.336Z,1.59
2023-04-13T20:58:08.455Z,1.78
2023-04-13T21:00:34.565Z,1.99
2023-04-13T21:03:00.868Z,1.79
2023-04-13T21:05:27.081Z,1.54
2023-04-13T21:07:53.953Z,1.91
2023-04-13T21:10:21.418Z,1.98
2023-04-13T21:12:47.553Z,2.07
2023-04-13T21:15:13.673Z,2.13
2023-04-13T21:17:39.897Z,2.23
2023-04-13T21:20:06.055Z,2.18
2023-04-13T21:22:32.284Z,2.19
2023-04-13T21:24:58.423Z,2.22
2023-04-13T21:27:24.550Z,2.14
2023-04-13T21:29:50.690Z,2.10
2023-04-13T21:32:16.980Z,2.09
2023-04-13T21:34:43.350Z,2.18
2023-04-13T21:37:09.470Z,2.17
2023-04-13T21:39:35.572Z,2.14
2023-04-13T21:42:01.752Z,1.92
2023-04-13T21:44:30.063Z,1.87
2023-04-13T21:46:56.551Z,2.09
2023-04-13T21:49:22.707Z,2.11
2023-04-13T21:51:48.812Z,2.07
2023-04-13T21:54:14.911Z,1.97
2023-04-13T21:56:41.061Z,1.95
2023-04-13T21:59:07.234Z,2.01
2023-04-13T22:01:33.368Z,2.10
2023-04-13T22:03:59.676Z,2.05
2023-04-13T22:06:25.854Z,2.07
2023-04-13T22:08:52.003Z,1.84
2023-04-13T22:11:18.135Z,1.72
2023-04-13T22:13:44.265Z,1.91
2023-04-13T22:16:10.390Z,1.91
2023-04-13T22:18:36.596Z,1.92
2023-04-13T22:21:02.700Z,1.95
2023-04-13T22:23:28.884Z,1.96
2023-04-13T22:25:55.021Z,2.01
2023-04-13T22:28:21.155Z,2.02
2023-04-13T22:30:47.278Z,2.01
2023-04-13T22:33:13.398Z,1.98
2023-04-13T22:35:39.542Z,2.12
2023-04-13T22:38:05.712Z,2.21
2023-04-13T22:40:31.889Z,2.25
2023-04-13T22:42:58.005Z,2.25
2023-04-13T22:45:24.120Z,2.20
2023-04-13T22:47:50.305Z,2.34
2023-04-13T22:50:16.452Z,2.37
2023-04-13T22:52:42.592Z,2.26
2023-04-13T22:55:08.706Z,2.34
2023-04-13T22:57:34.839Z,2.33
2023-04-13T23:00:00.999Z,2.28
2023-04-13T23:02:27.224Z,2.25
2023-04-13T23:07:37.501Z,2.29
2023-04-13T23:10:03.632Z,2.22
2023-04-13T23:15:15.901Z,2.40
2023-04-13T23:17:42.056Z,2.48
2023-04-13T23:22:58.550Z,2.09
2023-04-13T23:25:24.681Z,2.38
2023-04-13T23:27:50.788Z,2.15
2023-04-13T23:30:16.920Z,2.00
2023-04-13T23:32:43.096Z,2.10
2023-04-13T23:35:09.240Z,2.00
2023-04-13T23:37:35.390Z,1.72
2023-04-13T23:40:01.528Z,1.40
2023-04-13T23:42:27.667Z,0.38
2023-04-13T23:44:53.809Z,-0.59
2023-04-13T23:47:19.977Z,-0.06
2023-04-13T23:49:46.110Z,0.03
2023-04-13T23:52:12.240Z,-0.22
2023-04-13T23:54:38.408Z,0.07
2023-04-13T23:57:04.568Z,0.24
2023-04-13T23:59:30.669Z,0.47
